createdAt,value
2019-01-27T00:02:07.778Z,97687.88
2019-01-27T00:04:38.331Z,97675.81
2019-01-27T00:07:09.621Z,97674.36
2019-01-27T00:09:39.727Z,97663.94
2019-01-27T00:12:09.781Z,97649.73
2019-01-27T00:14:39.610Z,97649.73
2019-01-27T00:17:09.550Z,97647.27
2019-01-27T00:19:40.022Z,97651.12
2019-01-27T00:22:10.288Z,97639.34
2019-01-27T00:24:40.185Z,97641.34
2019-01-27T00:27:10.431Z,97639.25
2019-01-27T00:29:40.577Z,97628.36
2019-01-27T00:32:10.508Z,97630.30
2019-01-27T00:34:42.759Z,97627.44
2019-01-27T00:37:13.169Z,97619.44
2019-01-27T00:39:43.091Z,97611.12
2019-01-27T00:42:14.784Z,97603.53
2019-01-27T00:44:44.803Z,97597.53
2019-01-27T00:47:15.888Z,97600.36
2019-01-27T00:49:45.738Z,97588.14
2019-01-27T00:52:15.681Z,97586.94
2019-01-27T00:54:45.698Z,97586.94
2019-01-27T00:57:16.107Z,97584.84
2019-01-27T00:59:46.308Z,97580.94
2019-01-27T01:02:16.163Z,97580.18
2019-01-27T01:04:46.087Z,97573.67
2019-01-27T01:07:19.645Z,97582.66
2019-01-27T01:09:49.583Z,97585.35
2019-01-27T01:12:20.424Z,97579.31
2019-01-27T01:14:51.448Z,97569.05
2019-01-27T01:17:24.242Z,97557.78
2019-01-27T01:19:57.474Z,97558.86
2019-01-27T01:22:27.433Z,97557.33
2019-01-27T01:24:57.594Z,97545.79
2019-01-27T01:27:27.595Z,97548.36
2019-01-27T01:29:58.575Z,97542.02
2019-01-27T01:32:29.928Z,97539.11
2019-01-27T01:35:03.480Z,97536.33
2019-01-27T01:37:33.555Z,97528.95
2019-01-27T01:40:03.557Z,97511.56
2019-01-27T01:42:33.533Z,97511.56
2019-01-27T01:45:03.859Z,97504.48
2019-01-27T01:47:33.661Z,97490.75
2019-01-27T01:50:07.622Z,97488.58
2019-01-27T01:52:37.416Z,97491.59
2019-01-27T01:55:09.394Z,97480.17
2019-01-27T01:57:39.541Z,97467.97
2019-01-27T02:00:12.337Z,97463.77
2019-01-27T02:02:42.308Z,97457.33
2019-01-27T02:05:12.486Z,97461.14
2019-01-27T02:07:42.266Z,97443.38
2019-01-27T02:10:13.572Z,97433.65
2019-01-27T02:12:43.585Z,97433.65
2019-01-27T02:15:36.876Z,97386.33
2019-01-27T02:18:09.149Z,97439.30
2019-01-27T02:20:40.680Z,97436.25
2019-01-27T02:23:12.213Z,97406.40
2019-01-27T02:25:42.325Z,97408.56
2019-01-27T02:28:12.318Z,97380.97
2019-01-27T02:30:42.163Z,97388.52
2019-01-27T02:33:13.595Z,97388.52
2019-01-27T02:35:43.445Z,97382.28
2019-01-27T02:38:16.743Z,97382.28
2019-01-27T02:40:46.677Z,97369.94
2019-01-27T02:43:16.781Z,97360.32
2019-01-27T02:45:46.842Z,97354.15
2019-01-27T02:48:18.413Z,97350.02
2019-01-27T02:50:51.103Z,97345.03
2019-01-27T02:53:21.268Z,97338.30
2019-01-27T02:55:51.213Z,97344.75
2019-01-27T02:58:24.485Z,97340.10
2019-01-27T03:00:55.764Z,97343.39
2019-01-27T03:03:25.681Z,97334.09
2019-01-27T03:06:10.262Z,97325.03
2019-01-27T03:08:45.401Z,97325.03
2019-01-27T03:11:15.437Z,97311.52
2019-01-27T03:13:45.249Z,97307.19
2019-01-27T03:16:17.876Z,97305.72
2019-01-27T03:18:47.707Z,97244.52
2019-01-27T03:21:22.195Z,97244.52
2019-01-27T03:23:53.240Z,97299.66
2019-01-27T03:26:23.281Z,97294.59
2019-01-27T03:28:54.852Z,97272.05
2019-01-27T03:31:26.562Z,97272.05
2019-01-27T03:33:56.310Z,97259.03
2019-01-27T03:36:27.781Z,97259.31
2019-01-27T03:38:57.584Z,97255.81
2019-01-27T03:41:28.006Z,97255.81
2019-01-27T03:43:58.941Z,97246.74
2019-01-27T03:46:28.939Z,97246.74
2019-01-27T03:48:59.201Z,97247.55
2019-01-27T03:51:29.154Z,97230.99
2019-01-27T03:54:00.360Z,97229.37
2019-01-27T03:56:31.851Z,97233.77
2019-01-27T03:59:02.500Z,97233.77
2019-01-27T04:01:33.361Z,97218.11
2019-01-27T04:04:04.055Z,97218.89
2019-01-27T04:06:37.057Z,97210.98
2019-01-27T04:09:10.890Z,97208.04
2019-01-27T04:11:41.354Z,97210.86
2019-01-27T04:14:14.044Z,97205.66
2019-01-27T04:16:44.068Z,97204.13
2019-01-27T04:19:14.075Z,97204.13
2019-01-27T04:21:44.449Z,97199.22
2019-01-27T04:24:17.382Z,97190.94
2019-01-27T04:26:47.642Z,97187.55
2019-01-27T04:29:17.794Z,97179.22
2019-01-27T04:31:47.811Z,97181.36
2019-01-27T04:34:17.638Z,97170.90
2019-01-27T04:36:47.518Z,97156.02
2019-01-27T04:39:17.827Z,97153.46
2019-01-27T04:41:47.761Z,97145.65
2019-01-27T04:44:18.718Z,97141.23
2019-01-27T04:46:48.760Z,97133.94
2019-01-27T04:49:18.668Z,97124.36
2019-01-27T04:51:48.517Z,97118.69
2019-01-27T04:54:18.549Z,97105.85
2019-01-27T04:56:48.520Z,97104.59
2019-01-27T04:59:18.372Z,97104.59
2019-01-27T05:01:48.735Z,97104.64
2019-01-27T05:04:38.548Z,97105.11
2019-01-27T05:07:08.354Z,97105.11
2019-01-27T05:09:38.562Z,97088.19
2019-01-27T05:12:12.798Z,97086.56
2019-01-27T05:14:42.632Z,97092.28
2019-01-27T05:17:12.730Z,97079.77
2019-01-27T05:19:42.588Z,97081.16
2019-01-27T05:22:15.249Z,97064.00
2019-01-27T05:24:45.573Z,97064.00
2019-01-27T05:27:15.391Z,97071.06
2019-01-27T05:29:45.559Z,97056.73
2019-01-27T05:32:15.980Z,96968.30
2019-01-27T05:34:46.032Z,97050.53
2019-01-27T05:37:15.866Z,97042.17
2019-01-27T05:39:46.158Z,97042.17
2019-01-27T05:42:16.783Z,97039.81
2019-01-27T05:44:46.567Z,97035.97
2019-01-27T05:47:20.345Z,97031.76
2019-01-27T05:49:50.312Z,97020.31
2019-01-27T05:52:20.738Z,97020.31
2019-01-27T05:54:51.033Z,97010.75
2019-01-27T05:57:22.369Z,97010.75
2019-01-27T05:59:52.438Z,96998.75
2019-01-27T06:02:23.559Z,96995.26
2019-01-27T06:04:53.617Z,96995.26
2019-01-27T06:07:23.498Z,96992.69
2019-01-27T06:09:53.495Z,96986.66
2019-01-27T06:12:26.440Z,96986.14
2019-01-27T06:15:00.299Z,96975.97
2019-01-27T06:17:31.615Z,96975.97
2019-01-27T06:20:05.745Z,96980.36
2019-01-27T06:22:35.716Z,96972.30
2019-01-27T06:25:07.551Z,96969.73
2019-01-27T06:27:38.913Z,96969.73
2019-01-27T06:30:12.523Z,96969.80
2019-01-27T06:33:01.712Z,96969.80
2019-01-27T06:35:33.734Z,96963.64
2019-01-27T06:38:03.777Z,96956.06
2019-01-27T06:40:33.754Z,96958.70
2019-01-27T06:43:04.124Z,96951.41
2019-01-27T06:45:34.125Z,96951.41
2019-01-27T06:48:04.136Z,96945.99
2019-01-27T06:50:35.841Z,96945.99
2019-01-27T06:53:06.024Z,96943.94
2019-01-27T06:55:36.028Z,96918.22
2019-01-27T06:58:07.304Z,96949.08
2019-01-27T07:00:54.464Z,96949.08
2019-01-27T07:03:30.488Z,96946.78
2019-01-27T07:06:23.671Z,96946.44
2019-01-27T07:09:16.670Z,96865.73
2019-01-27T07:12:17.883Z,96865.73
2019-01-27T07:15:07.810Z,96941.36
2019-01-27T07:17:55.181Z,96934.34
2019-01-27T07:20:47.030Z,96928.38
2019-01-27T07:23:28.161Z,96928.38
2019-01-27T07:26:20.164Z,96922.55
2019-01-27T07:29:04.453Z,96922.55
2019-01-27T07:32:00.110Z,96916.53
2019-01-27T07:34:55.435Z,96909.11
2019-01-27T07:37:44.023Z,96909.11
2019-01-27T07:40:37.558Z,96904.98
2019-01-27T07:43:25.993Z,96904.42
2019-01-27T07:46:13.925Z,96903.91
2019-01-27T07:49:21.521Z,96903.91
2019-01-27T07:52:25.956Z,96884.98
2019-01-27T07:55:15.833Z,96886.73
2019-01-27T07:58:06.010Z,96886.73
2019-01-27T08:00:59.806Z,96871.13
2019-01-27T08:03:46.956Z,96871.13
2019-01-27T08:06:24.693Z,96858.05
2019-01-27T08:09:05.442Z,96848.45
2019-01-27T08:12:06.654Z,96842.94
2019-01-27T08:14:58.204Z,96847.93
2019-01-27T08:17:57.656Z,96856.45
2019-01-27T08:20:47.097Z,96835.92
2019-01-27T08:23:49.318Z,96844.59
2019-01-27T08:26:56.729Z,96832.08
2019-01-27T08:29:40.947Z,96837.78
2019-01-27T08:32:28.418Z,96831.22
2019-01-27T08:35:26.839Z,96839.55
2019-01-27T08:38:10.651Z,96836.19
2019-01-27T08:41:00.227Z,96851.30
2019-01-27T08:43:52.303Z,96839.78
2019-01-27T08:46:37.093Z,96829.59
2019-01-27T08:49:07.421Z,96824.89
2019-01-27T08:51:39.871Z,96817.60
2019-01-27T08:54:11.588Z,96821.99
2019-01-27T08:56:43.114Z,96821.99
2019-01-27T08:59:14.063Z,96826.48
2019-01-27T09:02:03.977Z,96839.45
2019-01-27T09:04:51.618Z,96834.02
2019-01-27T09:07:33.106Z,96848.03
2019-01-27T09:10:49.504Z,96848.03
2019-01-27T09:13:51.313Z,96838.19
2019-01-27T09:16:49.805Z,96827.22
2019-01-27T09:19:40.356Z,96843.92
2019-01-27T09:22:46.156Z,96836.88
2019-01-27T09:25:41.256Z,96836.88
2019-01-27T09:28:29.414Z,96824.08
2019-01-27T09:31:22.354Z,96824.08
2019-01-27T09:34:13.514Z,96814.97
2019-01-27T09:37:05.435Z,96798.05
2019-01-27T09:40:05.913Z,96798.30
2019-01-27T09:43:12.884Z,96813.52
2019-01-27T09:46:06.224Z,96813.52
2019-01-27T09:48:49.825Z,96807.94
2019-01-27T09:51:35.980Z,96799.86
2019-01-27T09:54:22.389Z,96799.86
2019-01-27T09:57:17.491Z,96808.47
2019-01-27T10:00:10.644Z,96819.50
2019-01-27T10:03:01.049Z,96810.36
2019-01-27T10:05:55.410Z,96810.36
2019-01-27T10:09:01.641Z,96812.70
2019-01-27T10:11:54.938Z,96810.63
2019-01-27T10:14:52.135Z,96746.70
2019-01-27T10:17:45.723Z,96802.53
2019-01-27T10:20:34.000Z,96803.06
2019-01-27T10:23:22.932Z,96803.06
2019-01-27T10:26:19.062Z,96801.48
2019-01-27T10:29:15.921Z,96801.48
2019-01-27T10:32:09.234Z,96788.72
2019-01-27T10:35:11.798Z,96788.72
2019-01-27T10:38:04.509Z,96796.05
2019-01-27T10:40:53.055Z,96790.60
2019-01-27T10:43:46.292Z,96781.45
2019-01-27T10:46:43.055Z,96707.84
2019-01-27T10:49:40.490Z,96782.95
2019-01-27T10:52:31.188Z,96780.58
2019-01-27T10:55:20.303Z,96792.30
2019-01-27T10:58:14.299Z,96778.92
2019-01-27T11:01:04.509Z,96778.44
2019-01-27T11:03:55.903Z,96764.14
2019-01-27T11:06:40.883Z,96759.48
2019-01-27T11:09:38.090Z,96761.29
2019-01-27T11:12:31.947Z,96757.39
2019-01-27T11:15:25.037Z,96749.80
2019-01-27T11:18:15.491Z,96746.61
2019-01-27T11:21:00.680Z,96747.11
2019-01-27T11:23:59.705Z,96737.14
2019-01-27T11:26:45.604Z,96732.61
2019-01-27T11:29:49.236Z,96739.89
2019-01-27T11:32:44.673Z,96734.08
2019-01-27T11:35:39.467Z,96717.86
2019-01-27T11:38:42.655Z,96720.52
2019-01-27T11:41:39.458Z,96718.69
2019-01-27T11:44:38.753Z,96705.54
2019-01-27T11:47:40.313Z,96700.05
2019-01-27T11:50:16.144Z,96685.06
2019-01-27T11:52:53.473Z,96690.98
2019-01-27T11:55:25.226Z,96682.25
2019-01-27T11:57:55.807Z,96608.84
2019-01-27T12:00:34.851Z,96679.84
2019-01-27T12:03:06.992Z,96673.72
2019-01-27T12:05:39.521Z,96673.04
2019-01-27T12:08:21.546Z,96660.95
2019-01-27T12:11:04.724Z,96668.74
2019-01-27T12:13:35.326Z,96672.52
2019-01-27T12:16:11.979Z,96661.63
2019-01-27T12:18:54.786Z,96666.25
2019-01-27T12:21:32.959Z,96651.07
2019-01-27T12:24:12.436Z,96651.14
2019-01-27T12:26:46.827Z,96607.72
2019-01-27T12:29:22.979Z,96649.67
2019-01-27T12:31:57.552Z,96644.29
2019-01-27T12:34:31.742Z,96655.14
2019-01-27T12:37:03.850Z,96638.72
2019-01-27T12:39:38.771Z,96646.36
2019-01-27T12:42:11.155Z,96641.74
2019-01-27T12:44:43.266Z,96631.23
2019-01-27T12:47:16.524Z,96640.70
2019-01-27T12:50:08.552Z,96640.40
2019-01-27T12:52:48.948Z,96642.69
2019-01-27T12:55:21.935Z,96601.36
2019-01-27T12:57:54.627Z,96617.96
2019-01-27T13:00:28.206Z,96612.62
2019-01-27T13:03:04.576Z,96615.64
2019-01-27T13:05:36.740Z,96617.77
2019-01-27T13:08:09.245Z,96615.68
2019-01-27T13:10:41.458Z,96603.11
2019-01-27T13:13:13.994Z,96608.28
2019-01-27T13:15:47.077Z,96601.27
2019-01-27T13:18:19.756Z,96604.91
2019-01-27T13:20:50.763Z,96611.97
2019-01-27T13:23:27.469Z,96582.20
2019-01-27T13:25:59.525Z,96599.98
2019-01-27T13:28:30.099Z,96599.42
2019-01-27T13:31:07.784Z,96588.81
2019-01-27T13:33:42.282Z,96590.09
2019-01-27T13:36:18.582Z,96575.33
2019-01-27T13:38:51.154Z,96585.27
2019-01-27T13:41:26.516Z,96555.42
2019-01-27T13:43:57.063Z,96582.80
2019-01-27T13:46:28.857Z,96580.67
2019-01-27T13:48:58.972Z,96587.81
2019-01-27T13:51:34.404Z,96564.28
2019-01-27T13:54:07.104Z,96554.46
2019-01-27T13:56:39.012Z,96553.94
2019-01-27T13:59:09.052Z,96529.43
2019-01-27T14:01:42.357Z,96546.63
2019-01-27T14:04:14.124Z,96534.84
2019-01-27T14:06:44.158Z,96533.28
2019-01-27T14:09:17.603Z,96557.77
2019-01-27T14:11:48.359Z,96547.70
2019-01-27T14:14:23.476Z,96551.58
2019-01-27T14:16:59.353Z,96552.45
2019-01-27T14:19:35.259Z,96554.84
2019-01-27T14:22:14.402Z,96551.92
2019-01-27T14:24:45.728Z,96543.30
2019-01-27T14:27:20.239Z,96551.45
2019-01-27T14:29:59.799Z,96539.17
2019-01-27T14:32:34.101Z,96545.17
2019-01-27T14:35:09.582Z,96530.85
2019-01-27T14:37:41.903Z,96525.84
2019-01-27T14:40:19.261Z,96538.56
2019-01-27T14:42:49.897Z,96540.17
2019-01-27T14:45:23.659Z,96538.55
2019-01-27T14:47:56.466Z,96476.67
2019-01-27T14:50:36.558Z,96543.00
2019-01-27T14:53:10.684Z,96550.06
2019-01-27T14:55:44.881Z,96545.27
2019-01-27T14:58:23.453Z,96542.43
2019-01-27T15:01:00.873Z,96449.90
2019-01-27T15:03:31.726Z,96530.50
2019-01-27T15:06:08.216Z,96530.33
2019-01-27T15:08:39.958Z,96537.69
2019-01-27T15:11:13.166Z,96538.43
2019-01-27T15:13:43.943Z,96541.57
2019-01-27T15:16:20.161Z,96528.72
2019-01-27T15:18:54.121Z,96462.47
2019-01-27T15:21:31.247Z,96542.83
2019-01-27T15:24:03.842Z,96539.95
2019-01-27T15:26:37.376Z,96542.58
2019-01-27T15:29:09.696Z,96542.47
2019-01-27T15:31:42.647Z,96536.23
2019-01-27T15:34:16.653Z,96534.38
2019-01-27T15:36:53.601Z,96534.63
2019-01-27T15:39:28.485Z,96526.05
2019-01-27T15:42:05.030Z,96526.65
2019-01-27T15:44:38.557Z,96536.63
2019-01-27T15:47:10.693Z,96522.57
2019-01-27T15:49:57.651Z,96529.62
2019-01-27T15:52:31.373Z,96534.58
2019-01-27T15:55:06.139Z,96521.03
2019-01-27T15:57:37.611Z,96525.73
2019-01-27T16:00:19.094Z,96517.38
2019-01-27T16:02:50.112Z,96521.33
2019-01-27T16:05:21.607Z,96519.27
2019-01-27T16:07:57.167Z,96532.62
2019-01-27T16:10:28.359Z,96530.80
2019-01-27T16:12:59.072Z,96523.51
2019-01-27T16:15:30.658Z,96537.59
2019-01-27T16:18:03.732Z,96540.22
2019-01-27T16:20:35.151Z,96537.35
2019-01-27T16:23:16.394Z,96453.84
2019-01-27T16:25:46.843Z,96535.30
2019-01-27T16:28:20.612Z,96532.95
2019-01-27T16:31:13.615Z,96537.14
2019-01-27T16:33:55.453Z,96543.67
2019-01-27T16:36:26.893Z,96530.42
2019-01-27T16:39:03.284Z,96458.83
2019-01-27T16:41:35.212Z,96532.27
2019-01-27T16:44:05.655Z,96509.59
2019-01-27T16:46:36.126Z,96509.59
2019-01-27T16:49:06.474Z,96524.45
2019-01-27T16:51:39.006Z,96524.45
2019-01-27T16:54:12.962Z,96528.33
2019-01-27T16:56:52.063Z,96538.23
2019-01-27T16:59:24.716Z,96539.80
2019-01-27T17:02:12.145Z,96532.77
2019-01-27T17:04:43.126Z,96542.69
2019-01-27T17:07:16.134Z,96542.69
2019-01-27T17:09:48.951Z,96532.23
2019-01-27T17:12:34.046Z,96532.23
2019-01-27T17:15:05.554Z,96534.58
2019-01-27T17:17:39.328Z,96528.05
2019-01-27T17:20:14.984Z,96531.95
2019-01-27T17:22:48.573Z,96522.33
2019-01-27T17:25:30.112Z,96529.09
2019-01-27T17:28:01.663Z,96529.09
2019-01-27T17:30:39.773Z,96526.76
2019-01-27T17:33:14.755Z,96519.73
2019-01-27T17:35:45.938Z,96519.73
2019-01-27T17:38:20.476Z,96526.52
2019-01-27T17:40:55.201Z,96509.58
2019-01-27T17:43:30.584Z,96509.58
2019-01-27T17:46:13.507Z,96527.57
2019-01-27T17:48:45.335Z,96515.59
2019-01-27T17:51:19.439Z,96515.59
2019-01-27T17:53:59.477Z,96501.78
2019-01-27T17:56:34.784Z,96501.78
2019-01-27T17:59:33.301Z,96520.28
2019-01-27T18:02:19.884Z,96520.28
2019-01-27T18:05:20.964Z,96512.72
2019-01-27T18:07:56.885Z,96512.20
2019-01-27T18:10:54.779Z,96512.20
2019-01-27T18:13:33.916Z,96508.31
2019-01-27T18:16:08.545Z,96509.07
2019-01-27T18:18:41.364Z,96499.71
2019-01-27T18:21:18.696Z,96442.97
2019-01-27T18:23:50.669Z,96511.39
2019-01-27T18:26:27.575Z,96508.27
2019-01-27T18:28:59.045Z,96516.59
2019-01-27T18:31:36.206Z,96512.20
2019-01-27T18:34:15.168Z,96519.74
2019-01-27T18:36:53.336Z,96519.74
2019-01-27T18:39:23.439Z,96519.20
2019-01-27T18:41:53.840Z,96515.77
2019-01-27T18:44:23.896Z,96515.24
2019-01-27T18:46:54.203Z,96522.28
2019-01-27T18:49:28.680Z,96523.81
2019-01-27T18:51:58.669Z,96533.94
2019-01-27T18:54:44.606Z,96533.92
2019-01-27T18:57:21.718Z,96528.96
2019-01-27T19:00:10.454Z,96520.88
2019-01-27T19:02:56.998Z,96520.88
2019-01-27T19:05:59.308Z,96515.42
2019-01-27T19:09:05.743Z,96526.66
2019-01-27T19:12:03.387Z,96525.39
2019-01-27T19:14:54.722Z,96443.17
2019-01-27T19:17:45.178Z,96525.91
2019-01-27T19:20:44.893Z,96526.45
2019-01-27T19:23:49.986Z,96523.86
2019-01-27T19:26:34.139Z,96523.86
2019-01-27T19:29:22.219Z,96528.31
2019-01-27T19:32:16.004Z,96519.72
2019-01-27T19:35:14.485Z,96519.72
2019-01-27T19:37:52.666Z,96539.28
2019-01-27T19:40:48.880Z,96540.05
2019-01-27T19:43:37.425Z,96533.55
2019-01-27T19:46:48.508Z,96548.91
2019-01-27T19:49:49.214Z,96548.91
2019-01-27T19:52:31.212Z,96540.57
2019-01-27T19:55:20.401Z,96530.96
2019-01-27T19:58:23.214Z,96539.28
2019-01-27T20:01:10.780Z,96539.28
2019-01-27T20:04:12.381Z,96536.95
2019-01-27T20:06:56.778Z,96536.95
2019-01-27T20:09:55.242Z,96533.30
2019-01-27T20:12:53.253Z,96541.89
2019-01-27T20:15:41.244Z,96547.34
2019-01-27T20:18:33.886Z,96558.53
2019-01-27T20:21:23.849Z,96558.53
2019-01-27T20:24:04.810Z,96540.30
2019-01-27T20:26:52.308Z,96550.70
2019-01-27T20:29:43.989Z,96550.70
2019-01-27T20:32:24.423Z,96545.76
2019-01-27T20:35:22.012Z,96549.93
2019-01-27T20:38:29.431Z,96556.71
2019-01-27T20:41:13.205Z,96555.41
2019-01-27T20:43:48.513Z,96553.59
2019-01-27T20:46:37.460Z,96553.59
2019-01-27T20:49:17.469Z,96550.98
2019-01-27T20:52:22.929Z,96545.51
2019-01-27T20:55:10.626Z,96545.51
2019-01-27T20:57:53.328Z,96480.97
2019-01-27T21:00:41.092Z,96555.39
2019-01-27T21:03:42.400Z,96555.39
2019-01-27T21:06:21.882Z,96533.25
2019-01-27T21:09:22.996Z,96558.78
2019-01-27T21:12:27.325Z,96567.36
2019-01-27T21:15:15.262Z,96566.30
2019-01-27T21:18:07.104Z,96566.30
2019-01-27T21:20:37.476Z,96567.58
2019-01-27T21:23:07.400Z,96577.52
2019-01-27T21:25:39.878Z,96581.17
2019-01-27T21:28:12.122Z,96581.41
2019-01-27T21:30:42.386Z,96577.02
2019-01-27T21:33:14.807Z,96577.02
2019-01-27T21:35:47.688Z,96591.34
2019-01-27T21:38:17.582Z,96592.64
2019-01-27T21:40:49.613Z,96599.17
2019-01-27T21:43:21.063Z,96598.42
2019-01-27T21:45:51.549Z,96603.38
2019-01-27T21:48:22.057Z,96599.47
2019-01-27T21:50:55.597Z,96607.02
2019-01-27T21:53:27.192Z,96608.59
2019-01-27T21:55:57.894Z,96609.89
2019-01-27T21:58:33.072Z,96615.36
2019-01-27T22:01:11.442Z,96615.36
2019-01-27T22:03:42.028Z,96633.08
2019-01-27T22:06:12.637Z,96639.59
2019-01-27T22:08:42.827Z,96647.17
2019-01-27T22:11:13.529Z,96647.17
2019-01-27T22:13:46.788Z,96667.75
2019-01-27T22:16:19.728Z,96669.03
2019-01-27T22:18:49.652Z,96690.59
2019-01-27T22:21:20.475Z,96690.59
2019-01-27T22:23:53.499Z,96707.98
2019-01-27T22:26:23.735Z,96707.98
2019-01-27T22:28:53.968Z,96705.13
2019-01-27T22:31:23.942Z,96713.46
2019-01-27T22:33:56.947Z,96722.30
2019-01-27T22:36:26.942Z,96650.71
2019-01-27T22:38:57.341Z,96736.25
2019-01-27T22:41:27.554Z,96738.61
2019-01-27T22:43:57.756Z,96750.31
2019-01-27T22:46:27.983Z,96752.63
2019-01-27T22:48:59.194Z,96751.03
2019-01-27T22:51:30.340Z,96757.75
2019-01-27T22:54:00.598Z,96759.35
2019-01-27T22:56:31.394Z,96771.03
2019-01-27T22:59:01.908Z,96775.16
2019-01-27T23:01:32.129Z,96769.10
2019-01-27T23:04:04.417Z,96783.86
2019-01-27T23:06:37.051Z,96783.31
2019-01-27T23:09:18.633Z,96791.11
2019-01-27T23:11:48.814Z,96789.02
2019-01-27T23:14:22.297Z,96789.27
2019-01-27T23:16:52.357Z,96800.17
2019-01-27T23:19:22.740Z,96797.58
2019-01-27T23:21:53.343Z,96811.33
2019-01-27T23:24:27.750Z,96816.22
2019-01-27T23:26:58.014Z,96817.72
2019-01-27T23:29:29.625Z,96817.33
2019-01-27T23:31:59.700Z,96824.02
2019-01-27T23:34:30.180Z,96817.98
2019-01-27T23:37:00.090Z,96834.52
2019-01-27T23:39:30.134Z,96833.81
2019-01-27T23:42:00.279Z,96836.92
2019-01-27T23:44:30.118Z,96828.57
2019-01-27T23:47:02.770Z,96844.34
2019-01-27T23:49:32.885Z,96847.63
2019-01-27T23:52:03.208Z,96850.75
2019-01-27T23:54:33.827Z,96860.25
2019-01-27T23:57:07.387Z,96863.81
2019-01-27T23:59:38.905Z,96869.84
